sensor_id;sensor_type;location;lat;lon;timestamp;P1;durP1;ratioP1;P2;durP2;ratioP2
15228;SDS011;7717;47.792;12.076;2023-12-20T00:01:46;5.90;;;3.93;;
15228;SDS011;7717;47.792;12.076;2023-12-20T00:04:12;4.97;;;3.70;;
15228;SDS011;7717;47.792;12.076;2023-12-20T00:06:38;5.93;;;3.57;;
15228;SDS011;7717;47.792;12.076;2023-12-20T00:09:03;7.33;;;5.17;;
15228;SDS011;7717;47.792;12.076;2023-12-20T00:11:28;8.00;;;5.50;;
15228;SDS011;7717;47.792;12.076;2023-12-20T00:13:54;7.17;;;4.37;;
15228;SDS011;7717;47.792;12.076;2023-12-20T00:16:19;3.73;;;3.20;;
15228;SDS011;7717;47.792;12.076;2023-12-20T00:18:45;8.80;;;4.37;;
15228;SDS011;7717;47.792;12.076;2023-12-20T00:21:10;14.47;;;7.07;;
15228;SDS011;7717;47.792;12.076;2023-12-20T00:23:36;12.23;;;6.17;;
15228;SDS011;7717;47.792;12.076;2023-12-20T00:26:01;7.20;;;4.83;;
15228;SDS011;7717;47.792;12.076;2023-12-20T00:28:27;5.93;;;4.23;;
15228;SDS011;7717;47.792;12.076;2023-12-20T00:30:52;5.37;;;4.43;;
15228;SDS011;7717;47.792;12.076;2023-12-20T00:33:18;7.20;;;4.40;;
15228;SDS011;7717;47.792;12.076;2023-12-20T00:35:46;7.07;;;3.90;;
15228;SDS011;7717;47.792;12.076;2023-12-20T00:38:12;7.20;;;4.67;;
15228;SDS011;7717;47.792;12.076;2023-12-20T00:40:37;4.67;;;4.00;;
15228;SDS011;7717;47.792;12.076;2023-12-20T00:43:03;6.13;;;4.33;;
15228;SDS011;7717;47.792;12.076;2023-12-20T00:45:28;6.47;;;4.20;;
15228;SDS011;7717;47.792;12.076;2023-12-20T00:47:54;5.07;;;4.10;;
15228;SDS011;7717;47.792;12.076;2023-12-20T00:50:19;9.37;;;4.27;;
15228;SDS011;7717;47.792;12.076;2023-12-20T00:52:48;6.23;;;5.00;;
15228;SDS011;7717;47.792;12.076;2023-12-20T00:55:13;6.00;;;4.03;;
15228;SDS011;7717;47.792;12.076;2023-12-20T00:57:39;3.90;;;3.47;;
15228;SDS011;7717;47.792;12.076;2023-12-20T01:00:04;5.30;;;3.87;;
15228;SDS011;7717;47.792;12.076;2023-12-20T01:02:30;4.83;;;3.53;;
15228;SDS011;7717;47.792;12.076;2023-12-20T01:04:56;4.33;;;3.60;;
15228;SDS011;7717;47.792;12.076;2023-12-20T01:07:21;4.73;;;3.73;;
15228;SDS011;7717;47.792;12.076;2023-12-20T01:09:47;4.73;;;3.83;;
15228;SDS011;7717;47.792;12.076;2023-12-20T01:12:12;5.20;;;3.50;;
15228;SDS011;7717;47.792;12.076;2023-12-20T01:14:38;4.80;;;3.67;;
15228;SDS011;7717;47.792;12.076;2023-12-20T01:17:04;4.90;;;3.67;;
15228;SDS011;7717;47.792;12.076;2023-12-20T01:19:29;4.77;;;3.93;;
15228;SDS011;7717;47.792;12.076;2023-12-20T01:21:55;5.50;;;3.60;;
15228;SDS011;7717;47.792;12.076;2023-12-20T01:24:21;4.57;;;3.90;;
15228;SDS011;7717;47.792;12.076;2023-12-20T01:26:46;4.70;;;4.03;;
15228;SDS011;7717;47.792;12.076;2023-12-20T01:29:12;3.47;;;3.17;;
15228;SDS011;7717;47.792;12.076;2023-12-20T01:31:39;4.00;;;3.60;;
15228;SDS011;7717;47.792;12.076;2023-12-20T01:34:05;4.57;;;3.57;;
15228;SDS011;7717;47.792;12.076;2023-12-20T01:36:30;4.20;;;3.70;;
15228;SDS011;7717;47.792;12.076;2023-12-20T01:38:56;5.30;;;3.70;;
15228;SDS011;7717;47.792;12.076;2023-12-20T01:41:22;4.57;;;3.50;;
15228;SDS011;7717;47.792;12.076;2023-12-20T01:43:48;12.87;;;4.70;;
15228;SDS011;7717;47.792;12.076;2023-12-20T01:46:13;8.30;;;4.43;;
15228;SDS011;7717;47.792;12.076;2023-12-20T01:48:40;4.47;;;3.47;;
15228;SDS011;7717;47.792;12.076;2023-12-20T01:51:06;5.37;;;3.63;;
15228;SDS011;7717;47.792;12.076;2023-12-20T01:53:31;6.30;;;3.40;;
15228;SDS011;7717;47.792;12.076;2023-12-20T01:55:57;4.17;;;3.33;;
15228;SDS011;7717;47.792;12.076;2023-12-20T01:58:24;3.50;;;3.20;;
15228;SDS011;7717;47.792;12.076;2023-12-20T02:00:51;3.10;;;2.90;;
15228;SDS011;7717;47.792;12.076;2023-12-20T02:03:16;6.07;;;3.83;;
15228;SDS011;7717;47.792;12.076;2023-12-20T02:05:42;5.27;;;3.47;;
15228;SDS011;7717;47.792;12.076;2023-12-20T02:08:07;5.90;;;3.60;;
15228;SDS011;7717;47.792;12.076;2023-12-20T02:10:33;4.63;;;3.50;;
15228;SDS011;7717;47.792;12.076;2023-12-20T02:12:59;6.97;;;3.23;;
15228;SDS011;7717;47.792;12.076;2023-12-20T02:15:24;3.10;;;2.80;;
15228;SDS011;7717;47.792;12.076;2023-12-20T02:17:49;3.97;;;3.00;;
15228;SDS011;7717;47.792;12.076;2023-12-20T02:20:15;3.40;;;3.00;;
15228;SDS011;7717;47.792;12.076;2023-12-20T02:22:41;4.53;;;3.30;;
15228;SDS011;7717;47.792;12.076;2023-12-20T02:25:06;5.07;;;3.30;;
15228;SDS011;7717;47.792;12.076;2023-12-20T02:27:32;4.80;;;3.23;;
15228;SDS011;7717;47.792;12.076;2023-12-20T02:29:57;4.33;;;3.00;;
15228;SDS011;7717;47.792;12.076;2023-12-20T02:32:22;3.37;;;3.03;;
15228;SDS011;7717;47.792;12.076;2023-12-20T02:34:53;3.30;;;3.03;;
15228;SDS011;7717;47.792;12.076;2023-12-20T02:37:18;3.33;;;3.07;;
15228;SDS011;7717;47.792;12.076;2023-12-20T02:39:43;4.63;;;3.07;;
15228;SDS011;7717;47.792;12.076;2023-12-20T02:42:09;5.43;;;3.57;;
15228;SDS011;7717;47.792;12.076;2023-12-20T02:44:34;3.83;;;2.73;;
15228;SDS011;7717;47.792;12.076;2023-12-20T02:47:00;4.37;;;3.30;;
15228;SDS011;7717;47.792;12.076;2023-12-20T02:49:25;3.17;;;2.87;;
15228;SDS011;7717;47.792;12.076;2023-12-20T02:51:51;3.50;;;3.07;;
15228;SDS011;7717;47.792;12.076;2023-12-20T02:54:16;3.63;;;3.13;;
15228;SDS011;7717;47.792;12.076;2023-12-20T02:56:42;4.33;;;3.47;;
15228;SDS011;7717;47.792;12.076;2023-12-20T02:59:07;3.43;;;2.87;;
15228;SDS011;7717;47.792;12.076;2023-12-20T03:01:37;4.80;;;3.17;;
15228;SDS011;7717;47.792;12.076;2023-12-20T03:04:13;3.80;;;3.00;;
15228;SDS011;7717;47.792;12.076;2023-12-20T03:06:38;5.20;;;3.53;;
15228;SDS011;7717;47.792;12.076;2023-12-20T03:09:04;3.13;;;2.83;;
15228;SDS011;7717;47.792;12.076;2023-12-20T03:11:30;4.30;;;3.27;;
15228;SDS011;7717;47.792;12.076;2023-12-20T03:13:56;3.77;;;3.00;;
15228;SDS011;7717;47.792;12.076;2023-12-20T03:16:22;3.67;;;3.27;;
15228;SDS011;7717;47.792;12.076;2023-12-20T03:18:47;4.03;;;3.60;;
15228;SDS011;7717;47.792;12.076;2023-12-20T03:21:12;5.07;;;3.47;;
15228;SDS011;7717;47.792;12.076;2023-12-20T03:23:38;3.77;;;3.07;;
15228;SDS011;7717;47.792;12.076;2023-12-20T03:26:06;3.77;;;3.30;;
15228;SDS011;7717;47.792;12.076;2023-12-20T03:28:38;3.50;;;2.90;;
15228;SDS011;7717;47.792;12.076;2023-12-20T03:31:04;5.37;;;3.40;;
15228;SDS011;7717;47.792;12.076;2023-12-20T03:33:29;3.50;;;3.20;;
15228;SDS011;7717;47.792;12.076;2023-12-20T03:35:59;3.43;;;3.17;;
15228;SDS011;7717;47.792;12.076;2023-12-20T03:38:24;3.60;;;2.97;;
15228;SDS011;7717;47.792;12.076;2023-12-20T03:40:49;5.27;;;3.37;;
15228;SDS011;7717;47.792;12.076;2023-12-20T03:43:15;4.03;;;2.53;;
15228;SDS011;7717;47.792;12.076;2023-12-20T03:45:41;5.03;;;2.83;;
15228;SDS011;7717;47.792;12.076;2023-12-20T03:48:07;3.63;;;2.67;;
15228;SDS011;7717;47.792;12.076;2023-12-20T03:50:33;3.07;;;2.77;;
15228;SDS011;7717;47.792;12.076;2023-12-20T03:52:59;2.87;;;2.47;;
15228;SDS011;7717;47.792;12.076;2023-12-20T03:55:24;4.67;;;3.10;;
15228;SDS011;7717;47.792;12.076;2023-12-20T03:57:49;4.03;;;3.07;;
15228;SDS011;7717;47.792;12.076;2023-12-20T04:00:15;3.07;;;2.40;;
15228;SDS011;7717;47.792;12.076;2023-12-20T04:02:43;2.97;;;2.47;;
15228;SDS011;7717;47.792;12.076;2023-12-20T04:05:09;3.17;;;2.83;;
15228;SDS011;7717;47.792;12.076;2023-12-20T04:07:35;3.40;;;2.63;;
15228;SDS011;7717;47.792;12.076;2023-12-20T04:10:02;2.73;;;2.37;;
15228;SDS011;7717;47.792;12.076;2023-12-20T04:12:29;3.70;;;2.57;;
15228;SDS011;7717;47.792;12.076;2023-12-20T04:14:54;4.10;;;3.43;;
15228;SDS011;7717;47.792;12.076;2023-12-20T04:17:20;5.87;;;4.40;;
15228;SDS011;7717;47.792;12.076;2023-12-20T04:19:47;3.77;;;2.93;;
15228;SDS011;7717;47.792;12.076;2023-12-20T04:22:13;26.30;;;12.70;;
15228;SDS011;7717;47.792;12.076;2023-12-20T04:24:38;16.90;;;10.60;;
15228;SDS011;7717;47.792;12.076;2023-12-20T04:27:04;2.17;;;1.67;;
15228;SDS011;7717;47.792;12.076;2023-12-20T04:29:29;2.03;;;1.67;;
15228;SDS011;7717;47.792;12.076;2023-12-20T04:31:55;1.40;;;0.97;;
15228;SDS011;7717;47.792;12.076;2023-12-20T04:34:21;1.13;;;1.10;;
15228;SDS011;7717;47.792;12.076;2023-12-20T04:36:47;1.07;;;0.90;;
15228;SDS011;7717;47.792;12.076;2023-12-20T04:39:12;1.20;;;1.10;;
15228;SDS011;7717;47.792;12.076;2023-12-20T04:41:38;1.10;;;1.00;;
15228;SDS011;7717;47.792;12.076;2023-12-20T04:44:04;1.30;;;1.20;;
15228;SDS011;7717;47.792;12.076;2023-12-20T04:46:31;1.43;;;1.00;;
15228;SDS011;7717;47.792;12.076;2023-12-20T04:48:56;1.43;;;1.33;;
15228;SDS011;7717;47.792;12.076;2023-12-20T04:51:22;1.70;;;1.43;;
15228;SDS011;7717;47.792;12.076;2023-12-20T04:53:47;1.70;;;1.03;;
15228;SDS011;7717;47.792;12.076;2023-12-20T04:56:13;1.43;;;1.33;;
15228;SDS011;7717;47.792;12.076;2023-12-20T04:58:38;1.30;;;1.17;;
15228;SDS011;7717;47.792;12.076;2023-12-20T05:01:05;0.73;;;0.73;;
15228;SDS011;7717;47.792;12.076;2023-12-20T05:03:31;1.23;;;1.13;;
15228;SDS011;7717;47.792;12.076;2023-12-20T05:05:56;1.63;;;1.20;;
15228;SDS011;7717;47.792;12.076;2023-12-20T05:08:22;1.20;;;1.10;;
15228;SDS011;7717;47.792;12.076;2023-12-20T05:10:47;1.20;;;1.10;;
15228;SDS011;7717;47.792;12.076;2023-12-20T05:13:13;1.27;;;1.10;;
15228;SDS011;7717;47.792;12.076;2023-12-20T05:15:39;1.73;;;1.10;;
15228;SDS011;7717;47.792;12.076;2023-12-20T05:18:04;1.13;;;0.93;;
15228;SDS011;7717;47.792;12.076;2023-12-20T05:20:29;1.40;;;1.07;;
15228;SDS011;7717;47.792;12.076;2023-12-20T05:22:55;1.67;;;1.40;;
15228;SDS011;7717;47.792;12.076;2023-12-20T05:25:20;1.10;;;1.00;;
15228;SDS011;7717;47.792;12.076;2023-12-20T05:27:46;2.13;;;1.67;;
15228;SDS011;7717;47.792;12.076;2023-12-20T05:30:11;1.17;;;1.03;;
15228;SDS011;7717;47.792;12.076;2023-12-20T05:32:36;2.97;;;2.07;;
15228;SDS011;7717;47.792;12.076;2023-12-20T05:35:02;1.97;;;1.60;;
15228;SDS011;7717;47.792;12.076;2023-12-20T05:37:28;2.30;;;2.10;;
15228;SDS011;7717;47.792;12.076;2023-12-20T05:39:54;3.17;;;1.80;;
15228;SDS011;7717;47.792;12.076;2023-12-20T05:42:19;1.07;;;1.03;;
15228;SDS011;7717;47.792;12.076;2023-12-20T05:44:45;1.67;;;1.57;;
15228;SDS011;7717;47.792;12.076;2023-12-20T05:47:10;1.23;;;1.13;;
15228;SDS011;7717;47.792;12.076;2023-12-20T05:49:36;1.03;;;1.00;;
15228;SDS011;7717;47.792;12.076;2023-12-20T05:52:01;2.80;;;2.60;;
15228;SDS011;7717;47.792;12.076;2023-12-20T05:54:26;1.97;;;1.70;;
15228;SDS011;7717;47.792;12.076;2023-12-20T05:56:52;1.00;;;0.87;;
15228;SDS011;7717;47.792;12.076;2023-12-20T05:59:17;3.07;;;1.50;;
15228;SDS011;7717;47.792;12.076;2023-12-20T06:01:43;1.27;;;1.17;;
15228;SDS011;7717;47.792;12.076;2023-12-20T06:04:09;1.30;;;1.20;;
15228;SDS011;7717;47.792;12.076;2023-12-20T06:06:34;2.83;;;1.30;;
15228;SDS011;7717;47.792;12.076;2023-12-20T06:09:00;1.10;;;1.10;;
15228;SDS011;7717;47.792;12.076;2023-12-20T06:11:27;2.67;;;1.23;;
15228;SDS011;7717;47.792;12.076;2023-12-20T06:13:53;1.60;;;1.10;;
15228;SDS011;7717;47.792;12.076;2023-12-20T06:16:18;1.23;;;1.13;;
15228;SDS011;7717;47.792;12.076;2023-12-20T06:18:44;1.60;;;1.23;;
15228;SDS011;7717;47.792;12.076;2023-12-20T06:21:10;1.33;;;1.03;;
15228;SDS011;7717;47.792;12.076;2023-12-20T06:23:37;1.30;;;1.20;;
15228;SDS011;7717;47.792;12.076;2023-12-20T06:26:03;1.83;;;1.63;;
15228;SDS011;7717;47.792;12.076;2023-12-20T06:28:29;2.70;;;2.40;;
15228;SDS011;7717;47.792;12.076;2023-12-20T06:30:54;1.70;;;1.60;;
15228;SDS011;7717;47.792;12.076;2023-12-20T06:33:20;1.17;;;0.83;;
15228;SDS011;7717;47.792;12.076;2023-12-20T06:35:47;3.00;;;2.10;;
15228;SDS011;7717;47.792;12.076;2023-12-20T06:38:13;1.60;;;1.40;;
15228;SDS011;7717;47.792;12.076;2023-12-20T06:40:38;2.23;;;1.57;;
15228;SDS011;7717;47.792;12.076;2023-12-20T06:43:04;1.43;;;1.27;;
15228;SDS011;7717;47.792;12.076;2023-12-20T06:45:29;1.70;;;1.07;;
15228;SDS011;7717;47.792;12.076;2023-12-20T06:47:55;1.33;;;1.20;;
15228;SDS011;7717;47.792;12.076;2023-12-20T06:50:20;1.00;;;0.90;;
15228;SDS011;7717;47.792;12.076;2023-12-20T06:52:46;0.80;;;0.80;;
15228;SDS011;7717;47.792;12.076;2023-12-20T06:55:12;1.93;;;1.00;;
15228;SDS011;7717;47.792;12.076;2023-12-20T06:57:37;0.63;;;0.63;;
15228;SDS011;7717;47.792;12.076;2023-12-20T07:00:03;3.50;;;1.70;;
15228;SDS011;7717;47.792;12.076;2023-12-20T07:02:29;2.23;;;1.30;;
15228;SDS011;7717;47.792;12.076;2023-12-20T07:04:56;1.57;;;1.20;;
15228;SDS011;7717;47.792;12.076;2023-12-20T07:07:22;2.07;;;1.83;;
15228;SDS011;7717;47.792;12.076;2023-12-20T07:09:49;1.47;;;1.37;;
15228;SDS011;7717;47.792;12.076;2023-12-20T07:12:14;1.10;;;1.00;;
15228;SDS011;7717;47.792;12.076;2023-12-20T07:14:40;1.30;;;0.77;;
15228;SDS011;7717;47.792;12.076;2023-12-20T07:17:06;0.77;;;0.77;;
15228;SDS011;7717;47.792;12.076;2023-12-20T07:19:37;0.87;;;0.70;;
15228;SDS011;7717;47.792;12.076;2023-12-20T07:22:03;1.40;;;1.10;;
15228;SDS011;7717;47.792;12.076;2023-12-20T07:24:29;1.73;;;1.10;;
15228;SDS011;7717;47.792;12.076;2023-12-20T07:26:55;3.00;;;1.40;;
15228;SDS011;7717;47.792;12.076;2023-12-20T07:29:20;1.43;;;1.23;;
15228;SDS011;7717;47.792;12.076;2023-12-20T07:31:45;1.53;;;0.93;;
15228;SDS011;7717;47.792;12.076;2023-12-20T07:34:11;0.97;;;0.87;;
15228;SDS011;7717;47.792;12.076;2023-12-20T07:36:36;0.80;;;0.80;;
15228;SDS011;7717;47.792;12.076;2023-12-20T07:39:01;1.13;;;1.07;;
15228;SDS011;7717;47.792;12.076;2023-12-20T07:41:28;1.27;;;1.17;;
15228;SDS011;7717;47.792;12.076;2023-12-20T07:43:54;1.23;;;1.10;;
15228;SDS011;7717;47.792;12.076;2023-12-20T07:46:20;0.63;;;0.60;;
15228;SDS011;7717;47.792;12.076;2023-12-20T07:48:47;2.27;;;1.00;;
15228;SDS011;7717;47.792;12.076;2023-12-20T07:51:13;4.07;;;1.47;;
15228;SDS011;7717;47.792;12.076;2023-12-20T07:53:38;1.40;;;1.30;;
15228;SDS011;7717;47.792;12.076;2023-12-20T07:56:17;1.20;;;1.10;;
15228;SDS011;7717;47.792;12.076;2023-12-20T07:58:43;1.40;;;1.30;;
15228;SDS011;7717;47.792;12.076;2023-12-20T08:01:19;2.13;;;1.93;;
15228;SDS011;7717;47.792;12.076;2023-12-20T08:03:46;1.20;;;1.10;;
15228;SDS011;7717;47.792;12.076;2023-12-20T08:06:11;1.20;;;1.10;;
15228;SDS011;7717;47.792;12.076;2023-12-20T08:08:37;1.57;;;0.83;;
15228;SDS011;7717;47.792;12.076;2023-12-20T08:11:03;1.77;;;1.67;;
15228;SDS011;7717;47.792;12.076;2023-12-20T08:13:28;1.10;;;1.00;;
15228;SDS011;7717;47.792;12.076;2023-12-20T08:15:54;1.13;;;1.03;;
15228;SDS011;7717;47.792;12.076;2023-12-20T08:18:21;1.37;;;1.27;;
15228;SDS011;7717;47.792;12.076;2023-12-20T08:20:47;1.43;;;1.30;;
15228;SDS011;7717;47.792;12.076;2023-12-20T08:23:13;1.50;;;1.30;;
15228;SDS011;7717;47.792;12.076;2023-12-20T08:25:39;0.90;;;0.90;;
15228;SDS011;7717;47.792;12.076;2023-12-20T08:28:04;2.83;;;1.43;;
15228;SDS011;7717;47.792;12.076;2023-12-20T08:30:30;1.30;;;1.13;;
15228;SDS011;7717;47.792;12.076;2023-12-20T08:32:56;2.57;;;1.77;;
15228;SDS011;7717;47.792;12.076;2023-12-20T08:35:21;1.70;;;1.60;;
15228;SDS011;7717;47.792;12.076;2023-12-20T08:37:47;0.90;;;0.90;;
15228;SDS011;7717;47.792;12.076;2023-12-20T08:40:12;1.27;;;1.17;;
15228;SDS011;7717;47.792;12.076;2023-12-20T08:42:38;1.77;;;1.20;;
15228;SDS011;7717;47.792;12.076;2023-12-20T08:45:04;1.00;;;0.90;;
15228;SDS011;7717;47.792;12.076;2023-12-20T08:47:30;1.00;;;0.90;;
15228;SDS011;7717;47.792;12.076;2023-12-20T08:49:55;1.80;;;1.17;;
15228;SDS011;7717;47.792;12.076;2023-12-20T08:52:23;0.80;;;0.80;;
15228;SDS011;7717;47.792;12.076;2023-12-20T08:54:49;0.60;;;0.60;;
15228;SDS011;7717;47.792;12.076;2023-12-20T08:57:17;0.90;;;0.70;;
15228;SDS011;7717;47.792;12.076;2023-12-20T08:59:46;0.87;;;0.87;;
15228;SDS011;7717;47.792;12.076;2023-12-20T09:02:13;0.47;;;0.47;;
15228;SDS011;7717;47.792;12.076;2023-12-20T09:04:39;0.70;;;0.70;;
15228;SDS011;7717;47.792;12.076;2023-12-20T09:07:20;1.23;;;0.60;;
15228;SDS011;7717;47.792;12.076;2023-12-20T09:09:49;0.70;;;0.70;;
15228;SDS011;7717;47.792;12.076;2023-12-20T09:12:14;0.60;;;0.60;;
15228;SDS011;7717;47.792;12.076;2023-12-20T09:14:40;0.40;;;0.40;;
15228;SDS011;7717;47.792;12.076;2023-12-20T09:17:06;0.50;;;0.50;;
15228;SDS011;7717;47.792;12.076;2023-12-20T09:19:33;0.50;;;0.50;;
15228;SDS011;7717;47.792;12.076;2023-12-20T09:21:59;0.50;;;0.40;;
15228;SDS011;7717;47.792;12.076;2023-12-20T09:24:24;1.07;;;0.30;;
15228;SDS011;7717;47.792;12.076;2023-12-20T09:26:50;0.40;;;0.40;;
15228;SDS011;7717;47.792;12.076;2023-12-20T09:29:15;0.40;;;0.40;;
15228;SDS011;7717;47.792;12.076;2023-12-20T09:31:41;0.20;;;0.20;;
15228;SDS011;7717;47.792;12.076;2023-12-20T09:34:08;0.87;;;0.30;;
15228;SDS011;7717;47.792;12.076;2023-12-20T09:36:34;0.43;;;0.43;;
15228;SDS011;7717;47.792;12.076;2023-12-20T09:39:01;0.57;;;0.40;;
15228;SDS011;7717;47.792;12.076;2023-12-20T09:41:28;0.27;;;0.23;;
15228;SDS011;7717;47.792;12.076;2023-12-20T09:43:57;0.30;;;0.30;;
15228;SDS011;7717;47.792;12.076;2023-12-20T09:46:28;1.00;;;0.53;;
15228;SDS011;7717;47.792;12.076;2023-12-20T09:48:58;0.70;;;0.63;;
15228;SDS011;7717;47.792;12.076;2023-12-20T09:51:28;2.67;;;1.33;;
15228;SDS011;7717;47.792;12.076;2023-12-20T09:53:55;1.23;;;0.70;;
15228;SDS011;7717;47.792;12.076;2023-12-20T09:56:22;1.37;;;0.83;;
15228;SDS011;7717;47.792;12.076;2023-12-20T09:58:47;0.30;;;0.30;;
15228;SDS011;7717;47.792;12.076;2023-12-20T10:01:13;0.97;;;0.60;;
15228;SDS011;7717;47.792;12.076;2023-12-20T10:03:41;0.50;;;0.50;;
15228;SDS011;7717;47.792;12.076;2023-12-20T10:06:07;0.93;;;0.60;;
15228;SDS011;7717;47.792;12.076;2023-12-20T10:08:33;1.27;;;0.90;;
15228;SDS011;7717;47.792;12.076;2023-12-20T10:10:59;1.23;;;0.80;;
15228;SDS011;7717;47.792;12.076;2023-12-20T10:13:28;1.47;;;0.63;;
15228;SDS011;7717;47.792;12.076;2023-12-20T10:15:54;0.50;;;0.50;;
15228;SDS011;7717;47.792;12.076;2023-12-20T10:18:20;0.73;;;0.57;;
15228;SDS011;7717;47.792;12.076;2023-12-20T10:20:46;0.30;;;0.30;;
15228;SDS011;7717;47.792;12.076;2023-12-20T10:23:12;1.33;;;1.00;;
15228;SDS011;7717;47.792;12.076;2023-12-20T10:25:40;0.87;;;0.50;;
15228;SDS011;7717;47.792;12.076;2023-12-20T10:28:10;0.30;;;0.30;;
15228;SDS011;7717;47.792;12.076;2023-12-20T10:30:42;0.30;;;0.30;;
15228;SDS011;7717;47.792;12.076;2023-12-20T10:33:07;0.30;;;0.30;;
15228;SDS011;7717;47.792;12.076;2023-12-20T10:35:33;0.20;;;0.20;;
15228;SDS011;7717;47.792;12.076;2023-12-20T10:38:00;0.80;;;0.60;;
15228;SDS011;7717;47.792;12.076;2023-12-20T10:40:29;1.07;;;0.97;;
15228;SDS011;7717;47.792;12.076;2023-12-20T10:42:56;1.87;;;1.17;;
15228;SDS011;7717;47.792;12.076;2023-12-20T10:45:23;0.80;;;0.70;;
15228;SDS011;7717;47.792;12.076;2023-12-20T10:47:49;0.30;;;0.30;;
15228;SDS011;7717;47.792;12.076;2023-12-20T10:50:15;0.67;;;0.43;;
15228;SDS011;7717;47.792;12.076;2023-12-20T10:52:41;0.80;;;0.60;;
15228;SDS011;7717;47.792;12.076;2023-12-20T10:55:07;0.80;;;0.70;;
15228;SDS011;7717;47.792;12.076;2023-12-20T10:57:34;1.07;;;0.90;;
15228;SDS011;7717;47.792;12.076;2023-12-20T11:00:01;0.60;;;0.60;;
15228;SDS011;7717;47.792;12.076;2023-12-20T11:02:29;0.30;;;0.30;;
15228;SDS011;7717;47.792;12.076;2023-12-20T11:05:10;0.57;;;0.43;;
15228;SDS011;7717;47.792;12.076;2023-12-20T11:08:01;0.57;;;0.47;;
15228;SDS011;7717;47.792;12.076;2023-12-20T11:10:36;0.30;;;0.30;;
15228;SDS011;7717;47.792;12.076;2023-12-20T11:13:20;0.20;;;0.20;;
15228;SDS011;7717;47.792;12.076;2023-12-20T11:15:48;0.37;;;0.37;;
15228;SDS011;7717;47.792;12.076;2023-12-20T11:18:14;0.30;;;0.30;;
15228;SDS011;7717;47.792;12.076;2023-12-20T11:20:40;0.43;;;0.40;;
15228;SDS011;7717;47.792;12.076;2023-12-20T11:23:10;0.23;;;0.23;;
15228;SDS011;7717;47.792;12.076;2023-12-20T11:25:48;0.70;;;0.70;;
15228;SDS011;7717;47.792;12.076;2023-12-20T11:28:16;0.33;;;0.33;;
15228;SDS011;7717;47.792;12.076;2023-12-20T11:33:15;0.33;;;0.27;;
15228;SDS011;7717;47.792;12.076;2023-12-20T11:35:42;1.10;;;0.40;;
15228;SDS011;7717;47.792;12.076;2023-12-20T11:38:08;0.33;;;0.33;;
15228;SDS011;7717;47.792;12.076;2023-12-20T11:40:35;0.30;;;0.30;;
15228;SDS011;7717;47.792;12.076;2023-12-20T11:43:01;0.30;;;0.30;;
15228;SDS011;7717;47.792;12.076;2023-12-20T11:45:28;0.60;;;0.40;;
15228;SDS011;7717;47.792;12.076;2023-12-20T11:47:53;0.20;;;0.20;;
15228;SDS011;7717;47.792;12.076;2023-12-20T11:50:19;0.30;;;0.30;;
15228;SDS011;7717;47.792;12.076;2023-12-20T11:52:46;0.40;;;0.40;;
15228;SDS011;7717;47.792;12.076;2023-12-20T11:55:12;0.30;;;0.30;;
15228;SDS011;7717;47.792;12.076;2023-12-20T11:57:38;0.30;;;0.30;;
15228;SDS011;7717;47.792;12.076;2023-12-20T12:00:03;0.50;;;0.47;;
15228;SDS011;7717;47.792;12.076;2023-12-20T12:02:29;0.50;;;0.50;;
15228;SDS011;7717;47.792;12.076;2023-12-20T12:04:55;0.30;;;0.30;;
15228;SDS011;7717;47.792;12.076;2023-12-20T12:07:21;0.30;;;0.30;;
15228;SDS011;7717;47.792;12.076;2023-12-20T12:09:47;0.30;;;0.30;;
15228;SDS011;7717;47.792;12.076;2023-12-20T12:12:13;0.33;;;0.33;;
15228;SDS011;7717;47.792;12.076;2023-12-20T12:14:40;0.33;;;0.33;;
15228;SDS011;7717;47.792;12.076;2023-12-20T12:17:12;0.33;;;0.33;;
15228;SDS011;7717;47.792;12.076;2023-12-20T12:19:41;0.30;;;0.30;;
15228;SDS011;7717;47.792;12.076;2023-12-20T12:22:08;0.60;;;0.60;;
15228;SDS011;7717;47.792;12.076;2023-12-20T12:24:45;0.43;;;0.30;;
15228;SDS011;7717;47.792;12.076;2023-12-20T12:27:11;0.40;;;0.40;;
15228;SDS011;7717;47.792;12.076;2023-12-20T12:29:38;0.50;;;0.50;;
15228;SDS011;7717;47.792;12.076;2023-12-20T12:32:06;0.60;;;0.60;;
15228;SDS011;7717;47.792;12.076;2023-12-20T12:34:33;0.30;;;0.30;;
15228;SDS011;7717;47.792;12.076;2023-12-20T12:36:59;0.70;;;0.70;;
15228;SDS011;7717;47.792;12.076;2023-12-20T12:39:31;0.60;;;0.60;;
15228;SDS011;7717;47.792;12.076;2023-12-20T12:41:57;1.13;;;1.03;;
15228;SDS011;7717;47.792;12.076;2023-12-20T12:44:22;0.73;;;0.73;;
15228;SDS011;7717;47.792;12.076;2023-12-20T12:46:51;0.53;;;0.50;;
15228;SDS011;7717;47.792;12.076;2023-12-20T12:49:18;0.50;;;0.50;;
15228;SDS011;7717;47.792;12.076;2023-12-20T12:51:44;1.43;;;1.23;;
15228;SDS011;7717;47.792;12.076;2023-12-20T12:54:10;0.60;;;0.60;;
15228;SDS011;7717;47.792;12.076;2023-12-20T12:56:36;0.30;;;0.30;;
15228;SDS011;7717;47.792;12.076;2023-12-20T12:59:02;0.60;;;0.60;;
15228;SDS011;7717;47.792;12.076;2023-12-20T13:01:28;1.20;;;0.83;;
15228;SDS011;7717;47.792;12.076;2023-12-20T13:03:53;0.73;;;0.70;;
15228;SDS011;7717;47.792;12.076;2023-12-20T13:06:19;0.50;;;0.50;;
15228;SDS011;7717;47.792;12.076;2023-12-20T13:08:44;0.50;;;0.50;;
15228;SDS011;7717;47.792;12.076;2023-12-20T13:11:10;0.40;;;0.40;;
15228;SDS011;7717;47.792;12.076;2023-12-20T13:13:35;0.40;;;0.40;;
15228;SDS011;7717;47.792;12.076;2023-12-20T13:16:01;0.50;;;0.50;;
15228;SDS011;7717;47.792;12.076;2023-12-20T13:18:26;0.70;;;0.70;;
15228;SDS011;7717;47.792;12.076;2023-12-20T13:20:52;2.50;;;1.40;;
15228;SDS011;7717;47.792;12.076;2023-12-20T13:23:17;1.10;;;1.00;;
15228;SDS011;7717;47.792;12.076;2023-12-20T13:25:43;0.90;;;0.90;;
15228;SDS011;7717;47.792;12.076;2023-12-20T13:28:10;1.27;;;1.00;;
15228;SDS011;7717;47.792;12.076;2023-12-20T13:30:36;0.97;;;0.97;;
15228;SDS011;7717;47.792;12.076;2023-12-20T13:33:01;0.60;;;0.60;;
15228;SDS011;7717;47.792;12.076;2023-12-20T13:35:27;0.60;;;0.60;;
15228;SDS011;7717;47.792;12.076;2023-12-20T13:37:52;0.33;;;0.33;;
15228;SDS011;7717;47.792;12.076;2023-12-20T13:40:18;0.60;;;0.60;;
15228;SDS011;7717;47.792;12.076;2023-12-20T13:42:43;0.60;;;0.60;;
15228;SDS011;7717;47.792;12.076;2023-12-20T13:45:10;1.60;;;0.90;;
15228;SDS011;7717;47.792;12.076;2023-12-20T13:47:35;0.60;;;0.60;;
15228;SDS011;7717;47.792;12.076;2023-12-20T13:50:01;0.40;;;0.40;;
15228;SDS011;7717;47.792;12.076;2023-12-20T13:52:27;0.87;;;0.77;;
15228;SDS011;7717;47.792;12.076;2023-12-20T13:54:53;0.73;;;0.70;;
15228;SDS011;7717;47.792;12.076;2023-12-20T13:57:18;0.70;;;0.70;;
15228;SDS011;7717;47.792;12.076;2023-12-20T13:59:43;0.50;;;0.50;;
15228;SDS011;7717;47.792;12.076;2023-12-20T14:02:10;0.93;;;0.67;;
15228;SDS011;7717;47.792;12.076;2023-12-20T14:04:39;1.17;;;1.17;;
15228;SDS011;7717;47.792;12.076;2023-12-20T14:07:04;1.03;;;0.90;;
15228;SDS011;7717;47.792;12.076;2023-12-20T14:09:32;2.50;;;1.17;;
15228;SDS011;7717;47.792;12.076;2023-12-20T14:11:58;0.60;;;0.60;;
15228;SDS011;7717;47.792;12.076;2023-12-20T14:14:23;1.30;;;1.13;;
15228;SDS011;7717;47.792;12.076;2023-12-20T14:16:49;1.27;;;1.00;;
15228;SDS011;7717;47.792;12.076;2023-12-20T14:19:14;0.97;;;0.87;;
15228;SDS011;7717;47.792;12.076;2023-12-20T14:21:40;1.27;;;0.90;;
15228;SDS011;7717;47.792;12.076;2023-12-20T14:24:06;0.50;;;0.50;;
15228;SDS011;7717;47.792;12.076;2023-12-20T14:26:31;0.90;;;0.90;;
15228;SDS011;7717;47.792;12.076;2023-12-20T14:28:57;0.70;;;0.70;;
15228;SDS011;7717;47.792;12.076;2023-12-20T14:31:23;0.77;;;0.73;;
15228;SDS011;7717;47.792;12.076;2023-12-20T14:33:49;0.50;;;0.50;;
15228;SDS011;7717;47.792;12.076;2023-12-20T14:36:16;1.07;;;1.00;;
15228;SDS011;7717;47.792;12.076;2023-12-20T14:38:43;1.10;;;1.00;;
15228;SDS011;7717;47.792;12.076;2023-12-20T14:41:08;1.50;;;1.40;;
15228;SDS011;7717;47.792;12.076;2023-12-20T14:43:37;1.13;;;0.97;;
15228;SDS011;7717;47.792;12.076;2023-12-20T14:46:06;1.77;;;1.67;;